Bellevue, Iowa
Current Conditions -  °F | °C
As of 3:53 PM on Sunday 25 Jan 2015 (Local Time) from KDBQ Reporting Station
Clear Clear  
Wind Chill: 10°   Ceiling: Unl
Heat Index: 24°   Visibility: 10mi
Dew Point: 15°   Wind: 20mph
Humidity: 69%   Direction: 30°NNE
Pressure: 29.95"   Gusts: NA
Location:  42.26°N, 90.42°W
Report Text: KDBQ 252153Z 03017KT 10SM CLR M04/M09 A2995 RMK AO2 SLP156 T10441094 $
Loading
Personal Weather Stations






























Interactive Weather Map New forecast layout! Learn more

10-Day Weather Forecast

Advertisements
Track Severe Weather on mobile